createdAt,value
2022-08-31T00:01:42.889Z,0.50
2022-08-31T00:04:13.880Z,0.50
2022-08-31T00:06:42.187Z,0.50
2022-08-31T00:09:09.962Z,0.30
2022-08-31T00:11:38.051Z,0.80
2022-08-31T00:14:13.424Z,0.50
2022-08-31T00:16:45.019Z,1.00
2022-08-31T00:19:13.540Z,0.90
2022-08-31T00:21:41.945Z,0.60
2022-08-31T00:24:14.484Z,0.40
2022-08-31T00:26:42.679Z,0.40
2022-08-31T00:29:13.584Z,0.40
2022-08-31T00:31:41.603Z,0.50
2022-08-31T00:34:09.768Z,0.60
2022-08-31T00:36:38.369Z,0.40
2022-08-31T00:39:07.602Z,0.50
2022-08-31T00:41:38.787Z,0.60
2022-08-31T00:44:10.333Z,0.50
2022-08-31T00:46:41.879Z,0.50
2022-08-31T00:49:40.020Z,0.50
2022-08-31T00:52:29.037Z,0.50
2022-08-31T00:55:09.862Z,0.50
2022-08-31T00:57:43.054Z,0.50
2022-08-31T01:00:19.309Z,0.60
2022-08-31T01:02:48.634Z,0.50
2022-08-31T01:05:17.979Z,0.50
2022-08-31T01:07:48.734Z,0.50
2022-08-31T01:10:22.329Z,0.50
2022-08-31T01:12:54.615Z,0.40
2022-08-31T01:15:25.028Z,0.50
2022-08-31T01:17:55.818Z,0.50
2022-08-31T01:20:36.541Z,0.40
2022-08-31T01:23:16.244Z,0.50
2022-08-31T01:25:47.282Z,0.60
2022-08-31T01:28:15.904Z,0.60
2022-08-31T01:31:01.851Z,0.50
2022-08-31T01:33:30.781Z,0.50
2022-08-31T01:36:00.232Z,0.40
2022-08-31T01:38:29.193Z,0.40
2022-08-31T01:41:02.529Z,0.50
2022-08-31T01:43:36.010Z,0.60
2022-08-31T01:46:10.818Z,0.50
2022-08-31T01:48:42.922Z,0.70
2022-08-31T01:51:13.225Z,0.60
2022-08-31T01:53:45.713Z,0.50
2022-08-31T01:56:23.798Z,0.40
2022-08-31T01:58:52.052Z,0.40
2022-08-31T02:01:26.402Z,0.50
2022-08-31T02:04:04.701Z,0.30
2022-08-31T02:06:34.693Z,0.40
2022-08-31T02:09:06.298Z,0.40
2022-08-31T02:11:34.385Z,0.50
2022-08-31T02:14:03.096Z,0.70
2022-08-31T02:16:30.920Z,0.40
2022-08-31T02:18:59.288Z,0.50
2022-08-31T02:21:27.342Z,0.60
2022-08-31T02:23:55.394Z,0.40
2022-08-31T02:26:24.706Z,0.50
2022-08-31T02:28:52.866Z,0.60
2022-08-31T02:31:20.694Z,0.50
2022-08-31T02:33:48.800Z,0.50
2022-08-31T02:36:17.308Z,0.40
2022-08-31T02:38:45.157Z,0.50
2022-08-31T02:41:13.534Z,0.60
2022-08-31T02:43:41.334Z,0.60
2022-08-31T02:46:09.473Z,0.40
2022-08-31T02:48:37.650Z,0.40
2022-08-31T02:51:10.310Z,0.60
2022-08-31T02:53:39.818Z,0.40
2022-08-31T02:56:08.891Z,0.60
2022-08-31T02:58:37.585Z,0.60
2022-08-31T03:01:05.414Z,0.60
2022-08-31T03:03:34.997Z,0.60
2022-08-31T03:06:03.707Z,0.40
2022-08-31T03:08:31.650Z,0.60
2022-08-31T03:11:00.683Z,0.50
2022-08-31T03:13:30.018Z,0.50
2022-08-31T03:15:57.955Z,0.70
2022-08-31T03:18:25.813Z,0.50
2022-08-31T03:20:54.042Z,0.70
2022-08-31T03:23:21.943Z,0.50
2022-08-31T03:25:50.035Z,0.40
2022-08-31T03:28:18.276Z,0.40
2022-08-31T03:30:46.271Z,0.70
2022-08-31T03:33:14.412Z,0.60
2022-08-31T03:35:44.274Z,0.60
2022-08-31T03:38:14.156Z,0.50
2022-08-31T03:40:44.175Z,0.90
2022-08-31T03:43:14.101Z,0.70
2022-08-31T03:45:43.396Z,1.00
2022-08-31T03:48:12.744Z,0.80
2022-08-31T03:50:42.484Z,0.70
2022-08-31T03:53:11.659Z,0.70
2022-08-31T03:55:43.279Z,1.00
2022-08-31T03:58:12.707Z,0.80
2022-08-31T04:00:44.486Z,0.80
2022-08-31T04:03:14.148Z,0.60
2022-08-31T04:05:44.747Z,0.60
2022-08-31T04:08:14.726Z,0.60
2022-08-31T04:10:44.761Z,0.60
2022-08-31T04:13:13.350Z,0.60
2022-08-31T04:15:42.172Z,0.50
2022-08-31T04:18:10.338Z,0.60
2022-08-31T04:20:40.639Z,0.60
2022-08-31T04:23:09.889Z,0.60
2022-08-31T04:25:42.955Z,0.50
2022-08-31T04:28:11.235Z,0.60
2022-08-31T04:30:43.579Z,0.80
2022-08-31T04:33:11.544Z,0.70
2022-08-31T04:35:41.925Z,0.60
2022-08-31T04:38:12.203Z,0.60
2022-08-31T04:40:42.700Z,0.80
2022-08-31T04:43:11.267Z,0.70
2022-08-31T04:45:44.613Z,0.80
2022-08-31T04:48:14.253Z,0.80
2022-08-31T04:50:43.331Z,0.70
2022-08-31T04:53:12.498Z,0.70
2022-08-31T04:55:42.235Z,0.80
2022-08-31T04:58:13.165Z,0.80
2022-08-31T05:00:44.177Z,0.70
2022-08-31T05:03:12.242Z,0.90
2022-08-31T05:05:41.354Z,0.90
2022-08-31T05:08:10.226Z,1.30
2022-08-31T05:10:40.635Z,0.70
2022-08-31T05:13:08.844Z,0.80
2022-08-31T05:15:43.056Z,0.80
2022-08-31T05:18:12.724Z,0.90
2022-08-31T05:20:41.196Z,1.00
2022-08-31T05:23:09.894Z,0.50
2022-08-31T05:25:40.567Z,0.70
2022-08-31T05:28:09.107Z,0.80
2022-08-31T05:30:36.964Z,0.80
2022-08-31T05:33:05.191Z,0.90
2022-08-31T05:35:35.060Z,0.70
2022-08-31T05:38:02.838Z,0.90
2022-08-31T05:40:30.818Z,0.70
2022-08-31T05:42:59.705Z,0.60
2022-08-31T05:45:28.255Z,1.00
2022-08-31T05:47:56.340Z,0.60
2022-08-31T05:50:24.329Z,0.90
2022-08-31T05:52:52.305Z,0.60
2022-08-31T05:55:20.311Z,0.70
2022-08-31T05:57:48.066Z,0.70
2022-08-31T06:00:15.996Z,0.60
2022-08-31T06:02:44.262Z,0.70
2022-08-31T06:05:12.125Z,0.60
2022-08-31T06:07:40.719Z,0.70
2022-08-31T06:10:09.881Z,0.50
2022-08-31T06:12:38.760Z,0.70
2022-08-31T06:15:07.805Z,0.70
2022-08-31T06:17:36.895Z,0.70
2022-08-31T06:20:07.565Z,0.70
2022-08-31T06:22:37.358Z,0.50
2022-08-31T06:25:07.095Z,0.80
2022-08-31T06:27:39.010Z,0.60
2022-08-31T06:30:08.039Z,0.70
2022-08-31T06:32:36.269Z,0.70
2022-08-31T06:35:04.817Z,0.80
2022-08-31T06:37:32.572Z,0.60
2022-08-31T06:40:00.796Z,0.80
2022-08-31T06:42:28.668Z,0.80
2022-08-31T06:44:56.780Z,0.80
2022-08-31T06:47:26.250Z,0.60
2022-08-31T06:49:54.150Z,0.60
2022-08-31T06:52:22.141Z,0.80
2022-08-31T06:54:50.297Z,1.00
2022-08-31T06:57:20.021Z,0.60
2022-08-31T06:59:47.829Z,0.60
2022-08-31T07:02:15.736Z,0.60
2022-08-31T07:04:43.708Z,0.60
2022-08-31T07:07:11.768Z,0.70
2022-08-31T07:09:41.343Z,0.50
2022-08-31T07:12:09.800Z,0.70
2022-08-31T07:14:38.124Z,0.70
2022-08-31T07:17:07.900Z,0.90
2022-08-31T07:19:35.940Z,0.60
2022-08-31T07:22:09.403Z,0.70
2022-08-31T07:24:41.287Z,0.70
2022-08-31T07:27:16.556Z,0.70
2022-08-31T07:29:44.803Z,1.50
2022-08-31T07:32:15.457Z,0.80
2022-08-31T07:34:44.188Z,0.60
2022-08-31T07:37:30.816Z,0.60
2022-08-31T07:40:18.000Z,0.70
2022-08-31T07:42:47.194Z,0.70
2022-08-31T07:45:25.646Z,0.40
2022-08-31T07:47:56.340Z,1.00
2022-08-31T07:50:26.900Z,0.80
2022-08-31T07:52:58.160Z,0.50
2022-08-31T07:55:29.340Z,0.50
2022-08-31T07:57:57.691Z,0.70
2022-08-31T08:00:33.853Z,0.60
2022-08-31T08:03:07.463Z,0.50
2022-08-31T08:05:39.209Z,0.70
2022-08-31T08:08:13.933Z,0.70
2022-08-31T08:10:52.687Z,0.70
2022-08-31T08:13:21.242Z,0.60
2022-08-31T08:15:51.865Z,0.80
2022-08-31T08:18:21.181Z,0.60
2022-08-31T08:20:49.413Z,0.80
2022-08-31T08:23:26.710Z,0.60
2022-08-31T08:26:01.357Z,0.60
2022-08-31T08:28:40.619Z,0.70
2022-08-31T08:31:23.227Z,0.30
2022-08-31T08:33:52.453Z,0.40
2022-08-31T08:36:20.332Z,0.60
2022-08-31T08:38:51.905Z,0.70
2022-08-31T08:41:25.526Z,0.50
2022-08-31T08:43:58.017Z,0.60
2022-08-31T08:47:01.328Z,0.50
2022-08-31T08:49:28.957Z,0.50
2022-08-31T08:52:11.918Z,0.60
2022-08-31T08:54:45.560Z,0.80
2022-08-31T08:57:26.947Z,0.40
2022-08-31T09:00:08.825Z,0.40
2022-08-31T09:03:07.587Z,0.30
2022-08-31T09:05:53.352Z,0.70
2022-08-31T09:08:59.703Z,0.60
2022-08-31T09:12:20.889Z,0.40
2022-08-31T09:15:36.819Z,0.60
2022-08-31T09:18:30.538Z,0.40
2022-08-31T09:21:23.754Z,0.50
2022-08-31T09:24:02.728Z,0.40
2022-08-31T09:26:47.453Z,0.50
2022-08-31T09:29:32.060Z,0.60
2022-08-31T09:32:08.132Z,0.40
2022-08-31T09:34:41.411Z,0.40
2022-08-31T09:37:28.965Z,0.40
2022-08-31T09:40:24.316Z,0.40
2022-08-31T09:43:06.124Z,0.40
2022-08-31T09:45:41.941Z,0.30
2022-08-31T09:48:10.422Z,0.40
2022-08-31T09:50:45.202Z,0.30
2022-08-31T09:53:44.327Z,0.30
2022-08-31T09:56:20.971Z,0.40
2022-08-31T09:59:02.969Z,0.20
2022-08-31T10:01:44.445Z,0.30
2022-08-31T10:04:37.042Z,0.20
2022-08-31T10:07:56.794Z,0.40
2022-08-31T10:10:37.152Z,0.30
2022-08-31T10:13:36.303Z,0.30
2022-08-31T10:16:26.746Z,0.20
2022-08-31T10:19:06.526Z,0.40
2022-08-31T10:21:59.528Z,0.30
2022-08-31T10:27:32.347Z,0.30
2022-08-31T10:30:36.098Z,0.40
2022-08-31T10:33:51.816Z,0.50
2022-08-31T10:36:20.661Z,0.40
2022-08-31T10:38:52.816Z,0.30
2022-08-31T10:41:33.220Z,0.40
2022-08-31T10:44:57.014Z,0.40
2022-08-31T10:47:33.113Z,0.30
2022-08-31T10:50:04.673Z,0.60
2022-08-31T10:53:02.666Z,0.40
2022-08-31T10:55:37.647Z,0.30
2022-08-31T10:58:26.646Z,0.40
2022-08-31T11:01:06.588Z,0.30
2022-08-31T11:04:00.746Z,0.30
2022-08-31T11:07:13.488Z,0.30
2022-08-31T11:09:47.201Z,0.40
2022-08-31T11:12:23.765Z,0.40
2022-08-31T11:15:22.559Z,0.40
2022-08-31T11:18:06.699Z,0.60
2022-08-31T11:20:51.592Z,0.30
2022-08-31T11:23:29.998Z,0.50
2022-08-31T11:26:43.538Z,0.40
2022-08-31T11:29:28.998Z,0.40
2022-08-31T11:32:04.653Z,0.40
2022-08-31T11:34:53.611Z,0.40
2022-08-31T11:37:52.982Z,0.40
2022-08-31T11:40:42.683Z,0.30
2022-08-31T11:43:37.001Z,0.50
2022-08-31T11:46:26.766Z,0.50
2022-08-31T11:48:55.094Z,0.40
2022-08-31T11:51:45.734Z,0.50
2022-08-31T11:54:26.966Z,0.30
2022-08-31T11:56:57.175Z,0.30
2022-08-31T11:59:30.206Z,0.50
2022-08-31T12:02:20.659Z,0.40
2022-08-31T12:05:02.637Z,0.50
2022-08-31T12:07:42.592Z,0.50
2022-08-31T12:10:34.283Z,0.60
2022-08-31T12:13:37.612Z,0.20
2022-08-31T12:16:45.255Z,0.30
2022-08-31T12:19:59.033Z,0.30
2022-08-31T12:23:35.778Z,0.40
2022-08-31T12:26:30.745Z,0.30
2022-08-31T12:29:22.177Z,0.40
2022-08-31T12:32:38.081Z,0.40
2022-08-31T12:35:22.555Z,0.30
2022-08-31T12:38:10.784Z,0.30
2022-08-31T12:40:45.979Z,0.20
2022-08-31T12:43:37.893Z,0.30
2022-08-31T12:46:36.572Z,0.30
2022-08-31T12:49:31.582Z,0.30
2022-08-31T12:52:17.892Z,0.30
2022-08-31T12:54:48.474Z,0.40
2022-08-31T12:57:43.282Z,0.20
2022-08-31T13:00:20.183Z,0.20
2022-08-31T13:02:55.918Z,0.30
2022-08-31T13:05:35.818Z,0.30
2022-08-31T13:08:25.614Z,0.40
2022-08-31T13:10:53.811Z,0.30
2022-08-31T13:13:30.171Z,0.20
2022-08-31T13:16:04.813Z,0.30
2022-08-31T13:18:35.088Z,0.30
2022-08-31T13:21:07.433Z,0.20
2022-08-31T13:23:41.031Z,0.20
2022-08-31T13:29:04.120Z,0.30
2022-08-31T13:31:52.657Z,0.30
2022-08-31T13:34:21.027Z,0.20
2022-08-31T13:36:59.881Z,0.20
2022-08-31T13:39:34.912Z,0.20
2022-08-31T13:42:42.981Z,0.10
2022-08-31T13:45:26.423Z,0.20
2022-08-31T13:48:15.948Z,0.60
2022-08-31T13:50:53.380Z,0.30
2022-08-31T13:53:56.598Z,0.40
2022-08-31T13:56:49.031Z,0.30
2022-08-31T13:59:26.844Z,0.30
2022-08-31T14:02:06.585Z,0.20
2022-08-31T14:04:44.059Z,0.40
2022-08-31T14:07:25.249Z,0.50
2022-08-31T14:10:15.367Z,0.40
2022-08-31T14:13:02.547Z,0.40
2022-08-31T14:15:53.781Z,0.30
2022-08-31T14:18:32.474Z,0.30
2022-08-31T14:21:20.915Z,0.50
2022-08-31T14:24:02.827Z,0.40
2022-08-31T14:26:38.407Z,0.50
2022-08-31T14:29:12.201Z,0.50
2022-08-31T14:31:52.168Z,0.50
2022-08-31T14:34:32.255Z,0.40
2022-08-31T14:37:16.554Z,0.40
2022-08-31T14:39:51.199Z,0.30
2022-08-31T14:42:36.362Z,0.40
2022-08-31T14:45:21.269Z,0.40
2022-08-31T14:47:53.356Z,0.40
2022-08-31T14:50:26.380Z,0.40
2022-08-31T14:52:58.497Z,0.40
2022-08-31T14:55:30.185Z,0.60
2022-08-31T14:58:10.174Z,0.50
2022-08-31T15:00:51.040Z,0.60
2022-08-31T15:03:24.612Z,0.40
2022-08-31T15:05:52.410Z,0.40
2022-08-31T15:08:23.229Z,0.50
2022-08-31T15:11:06.547Z,0.40
2022-08-31T15:13:37.511Z,0.50
2022-08-31T15:16:09.282Z,0.60
2022-08-31T15:18:37.168Z,0.40
2022-08-31T15:21:06.396Z,0.50
2022-08-31T15:23:34.515Z,0.50
2022-08-31T15:26:06.611Z,0.70
2022-08-31T15:28:39.604Z,0.60
2022-08-31T15:31:11.989Z,0.50
2022-08-31T15:33:43.941Z,0.50
2022-08-31T15:36:15.565Z,0.40
2022-08-31T15:38:50.018Z,0.50
2022-08-31T15:41:18.148Z,0.60
2022-08-31T15:43:46.743Z,0.50
2022-08-31T15:46:14.714Z,0.50
2022-08-31T15:48:42.655Z,0.60
2022-08-31T15:51:21.822Z,0.40
2022-08-31T15:54:18.545Z,0.50
2022-08-31T15:56:43.946Z,0.40
2022-08-31T15:59:11.828Z,0.50
2022-08-31T16:01:39.976Z,0.40
2022-08-31T16:04:10.562Z,0.50
2022-08-31T16:06:38.516Z,0.70
2022-08-31T16:09:08.204Z,0.50
2022-08-31T16:11:40.006Z,0.40
2022-08-31T16:14:11.213Z,0.40
2022-08-31T16:16:44.040Z,0.50
2022-08-31T16:19:33.308Z,0.40
2022-08-31T16:22:03.945Z,0.50
2022-08-31T16:24:37.372Z,0.50
2022-08-31T16:29:37.489Z,0.40
2022-08-31T16:32:09.432Z,0.40
2022-08-31T16:34:39.550Z,0.50
2022-08-31T16:37:08.776Z,0.60
2022-08-31T16:39:41.680Z,0.50
2022-08-31T16:42:12.899Z,0.60
2022-08-31T16:44:46.895Z,0.70
2022-08-31T16:47:18.829Z,0.50
2022-08-31T16:49:47.536Z,0.60
2022-08-31T16:52:26.661Z,0.50
2022-08-31T16:54:59.330Z,0.50
2022-08-31T16:57:30.329Z,0.50
2022-08-31T17:00:00.167Z,0.60
2022-08-31T17:02:28.394Z,0.60
2022-08-31T17:05:00.727Z,0.60
2022-08-31T17:07:29.095Z,0.60
2022-08-31T17:10:03.981Z,0.60
2022-08-31T17:12:32.900Z,0.50
2022-08-31T17:15:03.679Z,0.60
2022-08-31T17:17:33.113Z,0.50
2022-08-31T17:20:01.018Z,0.70
2022-08-31T17:22:33.221Z,0.70
2022-08-31T17:25:04.495Z,0.50
2022-08-31T17:27:35.473Z,0.60
2022-08-31T17:30:07.370Z,0.70
2022-08-31T17:32:42.616Z,0.50
2022-08-31T17:35:18.825Z,0.80
2022-08-31T17:37:49.076Z,0.50
2022-08-31T17:40:17.381Z,0.60
2022-08-31T17:42:46.484Z,0.70
2022-08-31T17:45:15.723Z,0.50
2022-08-31T17:47:43.677Z,0.90
2022-08-31T17:50:14.042Z,0.80
2022-08-31T17:52:41.998Z,0.90
2022-08-31T17:55:09.929Z,0.60
2022-08-31T17:57:37.713Z,0.80
2022-08-31T18:00:06.926Z,0.70
2022-08-31T18:02:35.109Z,0.80
2022-08-31T18:05:11.642Z,0.80
2022-08-31T18:07:41.073Z,0.70
2022-08-31T18:10:11.368Z,0.90
2022-08-31T18:12:41.876Z,1.00
2022-08-31T18:15:12.779Z,1.00
2022-08-31T18:17:40.716Z,1.10
2022-08-31T18:20:12.411Z,0.80
2022-08-31T18:22:40.483Z,1.00
2022-08-31T18:25:09.107Z,1.00
2022-08-31T18:27:36.892Z,1.10
2022-08-31T18:30:07.894Z,1.10
2022-08-31T18:32:36.291Z,1.00
2022-08-31T18:35:11.476Z,0.80
2022-08-31T18:37:39.624Z,0.80
2022-08-31T18:40:28.019Z,0.70
2022-08-31T18:43:15.331Z,0.70
2022-08-31T18:45:49.735Z,0.90
2022-08-31T18:48:26.635Z,0.90
2022-08-31T18:50:57.014Z,1.00
2022-08-31T18:53:29.515Z,0.70
2022-08-31T18:56:11.732Z,0.80
2022-08-31T18:58:40.165Z,0.90
2022-08-31T19:01:11.038Z,0.80
2022-08-31T19:03:41.215Z,0.80
2022-08-31T19:06:18.089Z,1.00
2022-08-31T19:08:46.596Z,0.80
2022-08-31T19:11:15.398Z,0.80
2022-08-31T19:13:46.524Z,0.70
2022-08-31T19:16:24.681Z,0.90
2022-08-31T19:18:56.253Z,0.80
2022-08-31T19:21:29.211Z,0.50
2022-08-31T19:24:01.191Z,0.70
2022-08-31T19:26:37.833Z,0.80
2022-08-31T19:29:11.329Z,0.80
2022-08-31T19:31:44.533Z,0.80
2022-08-31T19:34:16.147Z,0.90
2022-08-31T19:36:46.629Z,1.00
2022-08-31T19:39:21.785Z,0.80
2022-08-31T19:42:00.985Z,0.60
2022-08-31T19:44:54.283Z,0.70
2022-08-31T19:47:26.692Z,0.80
2022-08-31T19:49:55.140Z,0.80
2022-08-31T19:52:24.490Z,0.60
2022-08-31T19:54:52.236Z,0.80
2022-08-31T19:57:21.841Z,0.70
2022-08-31T19:59:49.954Z,0.90
2022-08-31T20:02:18.590Z,0.90
2022-08-31T20:04:46.659Z,0.70
2022-08-31T20:07:14.517Z,0.80
2022-08-31T20:09:42.683Z,0.90
2022-08-31T20:12:11.902Z,0.80
2022-08-31T20:14:39.678Z,0.80
2022-08-31T20:17:09.896Z,0.80
2022-08-31T20:19:39.599Z,0.90
2022-08-31T20:22:08.042Z,1.00
2022-08-31T20:24:43.634Z,0.70
2022-08-31T20:27:16.615Z,0.90
2022-08-31T20:29:48.121Z,0.70
2022-08-31T20:32:16.059Z,0.70
2022-08-31T20:34:44.793Z,0.80
2022-08-31T20:37:15.122Z,0.80
2022-08-31T20:39:45.909Z,0.90
2022-08-31T20:42:13.644Z,0.80
2022-08-31T20:44:48.874Z,0.70
2022-08-31T20:47:35.570Z,0.70
2022-08-31T20:50:07.399Z,0.70
2022-08-31T20:52:35.641Z,0.80
2022-08-31T20:55:07.726Z,0.70
2022-08-31T20:57:40.860Z,0.90
2022-08-31T21:00:10.900Z,1.00
2022-08-31T21:02:41.741Z,1.10
2022-08-31T21:05:37.513Z,1.10
2022-08-31T21:07:59.991Z,1.70
2022-08-31T21:10:36.919Z,0.90
2022-08-31T21:13:13.084Z,0.90
2022-08-31T21:15:45.303Z,0.90
2022-08-31T21:18:19.108Z,0.90
2022-08-31T21:20:47.766Z,0.90
2022-08-31T21:23:15.765Z,0.80
2022-08-31T21:25:46.009Z,0.80
2022-08-31T21:28:17.973Z,0.60
2022-08-31T21:30:49.930Z,0.60
2022-08-31T21:33:18.568Z,0.70
2022-08-31T21:35:47.676Z,0.70
2022-08-31T21:38:15.458Z,0.80
2022-08-31T21:40:51.260Z,0.70
2022-08-31T21:43:20.073Z,0.80
2022-08-31T21:45:49.452Z,0.90
2022-08-31T21:48:25.873Z,1.10
2022-08-31T21:50:54.935Z,0.80
2022-08-31T21:53:25.843Z,0.70
2022-08-31T21:55:54.310Z,0.70
2022-08-31T21:58:22.038Z,0.70
2022-08-31T22:00:51.341Z,0.70
2022-08-31T22:03:20.382Z,0.70
2022-08-31T22:05:48.927Z,0.90
2022-08-31T22:08:16.741Z,0.70
2022-08-31T22:10:44.804Z,0.70
2022-08-31T22:13:13.395Z,0.70
2022-08-31T22:15:42.895Z,0.60
2022-08-31T22:18:58.091Z,0.70
2022-08-31T22:20:59.665Z,0.70
2022-08-31T22:23:27.432Z,0.80
2022-08-31T22:25:55.434Z,0.80
2022-08-31T22:28:25.185Z,0.80
2022-08-31T22:30:53.791Z,0.70
2022-08-31T22:33:21.981Z,0.60
2022-08-31T22:35:49.922Z,0.70
2022-08-31T22:38:19.280Z,0.80
2022-08-31T22:40:50.258Z,0.90
2022-08-31T22:43:18.393Z,0.80
2022-08-31T22:45:48.829Z,0.90
2022-08-31T22:48:17.222Z,1.00
2022-08-31T22:50:45.162Z,0.90
2022-08-31T22:53:12.917Z,0.70
2022-08-31T22:55:43.139Z,0.70
2022-08-31T22:58:12.726Z,0.80
2022-08-31T23:00:40.656Z,1.00
2022-08-31T23:03:14.198Z,1.00
2022-08-31T23:05:43.922Z,0.80
2022-08-31T23:08:12.546Z,1.00
2022-08-31T23:10:41.567Z,0.90
2022-08-31T23:13:09.382Z,0.80
2022-08-31T23:15:37.617Z,0.90
2022-08-31T23:18:10.700Z,0.90
2022-08-31T23:20:40.815Z,1.10
2022-08-31T23:23:08.799Z,1.10
2022-08-31T23:25:39.460Z,1.20
2022-08-31T23:28:08.714Z,0.80
2022-08-31T23:30:40.274Z,0.80
2022-08-31T23:33:08.173Z,1.00
2022-08-31T23:35:36.359Z,0.90
2022-08-31T23:38:04.266Z,0.80
2022-08-31T23:40:34.241Z,0.80
2022-08-31T23:43:02.226Z,0.80
2022-08-31T23:45:29.953Z,0.90
2022-08-31T23:47:58.043Z,0.90
2022-08-31T23:50:25.826Z,0.80
2022-08-31T23:52:53.587Z,0.90
2022-08-31T23:55:28.390Z,0.80
2022-08-31T23:57:58.480Z,0.90
